sensor_id;sensor_type;location;lat;lon;timestamp;P1;durP1;ratioP1;P2;durP2;ratioP2
10050;SDS011;5065;46.942;7.432;2023-08-31T00:00:14;3.57;;;3.23;;
10050;SDS011;5065;46.942;7.432;2023-08-31T00:02:41;4.63;;;3.20;;
10050;SDS011;5065;46.942;7.432;2023-08-31T00:05:08;4.27;;;2.60;;
10050;SDS011;5065;46.942;7.432;2023-08-31T00:07:36;2.73;;;2.53;;
10050;SDS011;5065;46.942;7.432;2023-08-31T00:10:03;2.67;;;2.47;;
10050;SDS011;5065;46.942;7.432;2023-08-31T00:12:36;7.53;;;3.10;;
10050;SDS011;5065;46.942;7.432;2023-08-31T00:15:04;2.77;;;2.50;;
10050;SDS011;5065;46.942;7.432;2023-08-31T00:17:34;5.93;;;2.53;;
10050;SDS011;5065;46.942;7.432;2023-08-31T00:20:01;2.87;;;2.53;;
10050;SDS011;5065;46.942;7.432;2023-08-31T00:22:31;3.73;;;2.80;;
10050;SDS011;5065;46.942;7.432;2023-08-31T00:24:58;3.37;;;3.07;;
10050;SDS011;5065;46.942;7.432;2023-08-31T00:27:25;2.90;;;2.60;;
10050;SDS011;5065;46.942;7.432;2023-08-31T00:29:56;3.20;;;2.70;;
10050;SDS011;5065;46.942;7.432;2023-08-31T00:32:23;4.27;;;2.60;;
10050;SDS011;5065;46.942;7.432;2023-08-31T00:34:50;2.42;;;2.22;;
10050;SDS011;5065;46.942;7.432;2023-08-31T00:37:18;2.97;;;2.70;;
10050;SDS011;5065;46.942;7.432;2023-08-31T00:39:46;2.37;;;2.17;;
10050;SDS011;5065;46.942;7.432;2023-08-31T00:42:17;3.10;;;2.40;;
10050;SDS011;5065;46.942;7.432;2023-08-31T00:44:44;2.87;;;2.67;;
10050;SDS011;5065;46.942;7.432;2023-08-31T00:47:13;3.03;;;2.73;;
10050;SDS011;5065;46.942;7.432;2023-08-31T00:49:41;7.13;;;2.77;;
10050;SDS011;5065;46.942;7.432;2023-08-31T00:52:09;3.13;;;2.83;;
10050;SDS011;5065;46.942;7.432;2023-08-31T00:54:36;4.57;;;2.87;;
10050;SDS011;5065;46.942;7.432;2023-08-31T00:57:03;2.93;;;2.40;;
10050;SDS011;5065;46.942;7.432;2023-08-31T00:59:31;2.97;;;2.73;;
10050;SDS011;5065;46.942;7.432;2023-08-31T01:02:01;6.47;;;2.83;;
10050;SDS011;5065;46.942;7.432;2023-08-31T01:04:38;3.47;;;2.80;;
10050;SDS011;5065;46.942;7.432;2023-08-31T01:07:18;3.13;;;2.63;;
10050;SDS011;5065;46.942;7.432;2023-08-31T01:09:54;2.43;;;2.23;;
10050;SDS011;5065;46.942;7.432;2023-08-31T01:12:33;2.37;;;2.17;;
10050;SDS011;5065;46.942;7.432;2023-08-31T01:15:03;4.00;;;2.07;;
10050;SDS011;5065;46.942;7.432;2023-08-31T01:17:33;3.07;;;2.57;;
10050;SDS011;5065;46.942;7.432;2023-08-31T01:20:10;3.83;;;2.53;;
10050;SDS011;5065;46.942;7.432;2023-08-31T01:22:43;3.73;;;2.57;;
10050;SDS011;5065;46.942;7.432;2023-08-31T01:25:19;2.93;;;2.30;;
10050;SDS011;5065;46.942;7.432;2023-08-31T01:27:47;2.80;;;2.43;;
10050;SDS011;5065;46.942;7.432;2023-08-31T01:30:14;3.93;;;2.50;;
10050;SDS011;5065;46.942;7.432;2023-08-31T01:32:43;3.20;;;2.43;;
10050;SDS011;5065;46.942;7.432;2023-08-31T01:35:11;3.67;;;2.60;;
10050;SDS011;5065;46.942;7.432;2023-08-31T01:37:42;3.10;;;2.80;;
10050;SDS011;5065;46.942;7.432;2023-08-31T01:40:14;2.83;;;2.60;;
10050;SDS011;5065;46.942;7.432;2023-08-31T01:42:46;3.30;;;2.53;;
10050;SDS011;5065;46.942;7.432;2023-08-31T01:45:14;2.70;;;2.50;;
10050;SDS011;5065;46.942;7.432;2023-08-31T01:47:45;4.13;;;2.90;;
10050;SDS011;5065;46.942;7.432;2023-08-31T01:50:13;2.97;;;2.67;;
10050;SDS011;5065;46.942;7.432;2023-08-31T01:52:40;2.33;;;2.13;;
10050;SDS011;5065;46.942;7.432;2023-08-31T01:55:07;2.83;;;2.63;;
10050;SDS011;5065;46.942;7.432;2023-08-31T01:57:34;3.20;;;2.53;;
10050;SDS011;5065;46.942;7.432;2023-08-31T02:00:03;3.03;;;2.50;;
10050;SDS011;5065;46.942;7.432;2023-08-31T02:02:33;2.67;;;2.47;;
10050;SDS011;5065;46.942;7.432;2023-08-31T02:05:00;4.67;;;2.37;;
10050;SDS011;5065;46.942;7.432;2023-08-31T02:07:28;3.20;;;2.20;;
10050;SDS011;5065;46.942;7.432;2023-08-31T02:09:55;3.53;;;2.70;;
10050;SDS011;5065;46.942;7.432;2023-08-31T02:12:22;2.93;;;2.60;;
10050;SDS011;5065;46.942;7.432;2023-08-31T02:14:50;3.33;;;2.80;;
10050;SDS011;5065;46.942;7.432;2023-08-31T02:17:18;3.70;;;2.70;;
10050;SDS011;5065;46.942;7.432;2023-08-31T02:19:46;3.30;;;2.33;;
10050;SDS011;5065;46.942;7.432;2023-08-31T02:22:13;2.87;;;2.30;;
10050;SDS011;5065;46.942;7.432;2023-08-31T02:24:40;2.47;;;2.27;;
10050;SDS011;5065;46.942;7.432;2023-08-31T02:27:07;3.13;;;2.67;;
10050;SDS011;5065;46.942;7.432;2023-08-31T02:29:34;2.57;;;2.37;;
10050;SDS011;5065;46.942;7.432;2023-08-31T02:32:03;2.43;;;2.23;;
10050;SDS011;5065;46.942;7.432;2023-08-31T02:34:32;3.20;;;2.43;;
10050;SDS011;5065;46.942;7.432;2023-08-31T02:36:59;3.50;;;2.03;;
10050;SDS011;5065;46.942;7.432;2023-08-31T02:39:27;2.77;;;2.43;;
10050;SDS011;5065;46.942;7.432;2023-08-31T02:41:54;3.40;;;2.73;;
10050;SDS011;5065;46.942;7.432;2023-08-31T02:44:21;2.87;;;2.53;;
10050;SDS011;5065;46.942;7.432;2023-08-31T02:46:48;3.03;;;2.73;;
10050;SDS011;5065;46.942;7.432;2023-08-31T02:49:15;2.53;;;2.30;;
10050;SDS011;5065;46.942;7.432;2023-08-31T02:51:44;3.53;;;2.60;;
10050;SDS011;5065;46.942;7.432;2023-08-31T02:54:12;3.07;;;2.77;;
10050;SDS011;5065;46.942;7.432;2023-08-31T02:56:39;2.70;;;2.50;;
10050;SDS011;5065;46.942;7.432;2023-08-31T02:59:06;2.67;;;2.47;;
10050;SDS011;5065;46.942;7.432;2023-08-31T03:01:33;4.77;;;2.90;;
10050;SDS011;5065;46.942;7.432;2023-08-31T03:04:00;2.57;;;2.37;;
10050;SDS011;5065;46.942;7.432;2023-08-31T03:06:27;3.03;;;2.47;;
10050;SDS011;5065;46.942;7.432;2023-08-31T03:08:56;2.53;;;2.33;;
10050;SDS011;5065;46.942;7.432;2023-08-31T03:11:23;2.60;;;2.23;;
10050;SDS011;5065;46.942;7.432;2023-08-31T03:13:50;3.97;;;2.73;;
10050;SDS011;5065;46.942;7.432;2023-08-31T03:16:17;2.77;;;2.57;;
10050;SDS011;5065;46.942;7.432;2023-08-31T03:18:45;3.70;;;2.77;;
10050;SDS011;5065;46.942;7.432;2023-08-31T03:21:12;2.70;;;2.50;;
10050;SDS011;5065;46.942;7.432;2023-08-31T03:23:39;2.97;;;2.67;;
10050;SDS011;5065;46.942;7.432;2023-08-31T03:26:08;4.83;;;2.70;;
10050;SDS011;5065;46.942;7.432;2023-08-31T03:28:35;3.13;;;2.67;;
10050;SDS011;5065;46.942;7.432;2023-08-31T03:31:03;3.03;;;2.73;;
10050;SDS011;5065;46.942;7.432;2023-08-31T03:33:30;2.53;;;2.33;;
10050;SDS011;5065;46.942;7.432;2023-08-31T03:35:59;6.37;;;2.70;;
10050;SDS011;5065;46.942;7.432;2023-08-31T03:38:29;2.70;;;2.40;;
10050;SDS011;5065;46.942;7.432;2023-08-31T03:40:57;3.13;;;2.47;;
10050;SDS011;5065;46.942;7.432;2023-08-31T03:43:26;2.80;;;2.50;;
10050;SDS011;5065;46.942;7.432;2023-08-31T03:45:53;2.90;;;2.60;;
10050;SDS011;5065;46.942;7.432;2023-08-31T03:48:22;2.13;;;1.93;;
10050;SDS011;5065;46.942;7.432;2023-08-31T03:50:49;2.87;;;2.50;;
10050;SDS011;5065;46.942;7.432;2023-08-31T03:53:17;3.33;;;2.37;;
10050;SDS011;5065;46.942;7.432;2023-08-31T03:55:44;7.10;;;3.77;;
10050;SDS011;5065;46.942;7.432;2023-08-31T03:58:11;3.60;;;3.00;;
10050;SDS011;5065;46.942;7.432;2023-08-31T04:00:40;3.63;;;2.87;;
10050;SDS011;5065;46.942;7.432;2023-08-31T04:03:07;2.77;;;2.57;;
10050;SDS011;5065;46.942;7.432;2023-08-31T04:05:35;3.07;;;2.57;;
10050;SDS011;5065;46.942;7.432;2023-08-31T04:08:02;3.20;;;2.57;;
10050;SDS011;5065;46.942;7.432;2023-08-31T04:10:30;4.10;;;2.90;;
10050;SDS011;5065;46.942;7.432;2023-08-31T04:12:58;3.00;;;2.70;;
10050;SDS011;5065;46.942;7.432;2023-08-31T04:15:25;4.10;;;2.87;;
10050;SDS011;5065;46.942;7.432;2023-08-31T04:17:54;2.30;;;2.10;;
10050;SDS011;5065;46.942;7.432;2023-08-31T04:20:21;3.23;;;2.90;;
10050;SDS011;5065;46.942;7.432;2023-08-31T04:22:48;5.63;;;2.70;;
10050;SDS011;5065;46.942;7.432;2023-08-31T04:25:15;6.63;;;3.60;;
10050;SDS011;5065;46.942;7.432;2023-08-31T04:27:42;5.07;;;4.03;;
10050;SDS011;5065;46.942;7.432;2023-08-31T04:30:10;3.63;;;3.07;;
10050;SDS011;5065;46.942;7.432;2023-08-31T04:32:38;2.73;;;2.47;;
10050;SDS011;5065;46.942;7.432;2023-08-31T04:35:07;2.97;;;2.37;;
10050;SDS011;5065;46.942;7.432;2023-08-31T04:37:34;3.27;;;2.60;;
10050;SDS011;5065;46.942;7.432;2023-08-31T04:40:02;2.60;;;2.30;;
10050;SDS011;5065;46.942;7.432;2023-08-31T04:42:30;3.77;;;2.90;;
10050;SDS011;5065;46.942;7.432;2023-08-31T04:44:57;3.40;;;2.80;;
10050;SDS011;5065;46.942;7.432;2023-08-31T04:47:25;5.50;;;2.20;;
10050;SDS011;5065;46.942;7.432;2023-08-31T04:49:52;3.40;;;2.53;;
10050;SDS011;5065;46.942;7.432;2023-08-31T04:52:21;2.83;;;2.53;;
10050;SDS011;5065;46.942;7.432;2023-08-31T04:54:48;6.67;;;2.07;;
10050;SDS011;5065;46.942;7.432;2023-08-31T04:57:15;2.83;;;2.23;;
10050;SDS011;5065;46.942;7.432;2023-08-31T04:59:42;3.00;;;2.23;;
10050;SDS011;5065;46.942;7.432;2023-08-31T05:02:09;2.00;;;1.80;;
10050;SDS011;5065;46.942;7.432;2023-08-31T05:04:40;5.20;;;2.80;;
10050;SDS011;5065;46.942;7.432;2023-08-31T05:07:07;4.03;;;2.60;;
10050;SDS011;5065;46.942;7.432;2023-08-31T05:09:36;3.53;;;2.17;;
10050;SDS011;5065;46.942;7.432;2023-08-31T05:12:03;4.20;;;2.53;;
10050;SDS011;5065;46.942;7.432;2023-08-31T05:14:34;3.40;;;2.60;;
10050;SDS011;5065;46.942;7.432;2023-08-31T05:17:02;3.03;;;2.73;;
10050;SDS011;5065;46.942;7.432;2023-08-31T05:19:29;4.27;;;2.33;;
10050;SDS011;5065;46.942;7.432;2023-08-31T05:21:57;3.07;;;2.30;;
10050;SDS011;5065;46.942;7.432;2023-08-31T05:24:24;2.87;;;2.27;;
10050;SDS011;5065;46.942;7.432;2023-08-31T05:26:53;6.07;;;2.53;;
10050;SDS011;5065;46.942;7.432;2023-08-31T05:29:20;2.90;;;2.30;;
10050;SDS011;5065;46.942;7.432;2023-08-31T05:31:47;2.77;;;1.97;;
10050;SDS011;5065;46.942;7.432;2023-08-31T05:34:15;4.33;;;2.20;;
10050;SDS011;5065;46.942;7.432;2023-08-31T05:36:43;3.00;;;2.70;;
10050;SDS011;5065;46.942;7.432;2023-08-31T05:39:11;3.43;;;2.40;;
10050;SDS011;5065;46.942;7.432;2023-08-31T05:41:39;2.50;;;2.30;;
10050;SDS011;5065;46.942;7.432;2023-08-31T05:44:09;2.47;;;2.27;;
10050;SDS011;5065;46.942;7.432;2023-08-31T05:46:36;3.37;;;2.67;;
10050;SDS011;5065;46.942;7.432;2023-08-31T05:49:04;3.00;;;2.30;;
10050;SDS011;5065;46.942;7.432;2023-08-31T05:51:31;4.37;;;2.20;;
10050;SDS011;5065;46.942;7.432;2023-08-31T05:53:59;4.93;;;2.57;;
10050;SDS011;5065;46.942;7.432;2023-08-31T05:56:26;3.60;;;2.70;;
10050;SDS011;5065;46.942;7.432;2023-08-31T05:58:53;3.07;;;2.67;;
10050;SDS011;5065;46.942;7.432;2023-08-31T06:01:22;4.90;;;2.97;;
10050;SDS011;5065;46.942;7.432;2023-08-31T06:03:49;2.90;;;2.50;;
10050;SDS011;5065;46.942;7.432;2023-08-31T06:06:16;8.00;;;3.80;;
10050;SDS011;5065;46.942;7.432;2023-08-31T06:08:44;3.37;;;2.53;;
10050;SDS011;5065;46.942;7.432;2023-08-31T06:11:11;4.10;;;2.73;;
10050;SDS011;5065;46.942;7.432;2023-08-31T06:13:40;6.77;;;3.40;;
10050;SDS011;5065;46.942;7.432;2023-08-31T06:16:07;4.07;;;3.00;;
10050;SDS011;5065;46.942;7.432;2023-08-31T06:18:40;3.87;;;2.63;;
10050;SDS011;5065;46.942;7.432;2023-08-31T06:21:08;7.03;;;2.53;;
10050;SDS011;5065;46.942;7.432;2023-08-31T06:23:36;3.20;;;2.93;;
10050;SDS011;5065;46.942;7.432;2023-08-31T06:26:03;2.93;;;2.33;;
10050;SDS011;5065;46.942;7.432;2023-08-31T06:28:30;4.57;;;2.40;;
10050;SDS011;5065;46.942;7.432;2023-08-31T06:30:57;5.97;;;2.77;;
10050;SDS011;5065;46.942;7.432;2023-08-31T06:33:24;5.43;;;3.90;;
10050;SDS011;5065;46.942;7.432;2023-08-31T06:35:53;5.83;;;4.03;;
10050;SDS011;5065;46.942;7.432;2023-08-31T06:38:20;3.87;;;3.27;;
10050;SDS011;5065;46.942;7.432;2023-08-31T06:40:47;4.00;;;3.20;;
10050;SDS011;5065;46.942;7.432;2023-08-31T06:43:15;6.10;;;3.00;;
10050;SDS011;5065;46.942;7.432;2023-08-31T06:45:42;4.27;;;2.90;;
10050;SDS011;5065;46.942;7.432;2023-08-31T06:48:11;3.60;;;3.00;;
10050;SDS011;5065;46.942;7.432;2023-08-31T06:50:38;3.20;;;2.90;;
10050;SDS011;5065;46.942;7.432;2023-08-31T06:53:09;3.53;;;2.83;;
10050;SDS011;5065;46.942;7.432;2023-08-31T06:55:36;2.80;;;2.20;;
10050;SDS011;5065;46.942;7.432;2023-08-31T06:58:04;3.50;;;3.00;;
10050;SDS011;5065;46.942;7.432;2023-08-31T07:00:32;3.47;;;2.90;;
10050;SDS011;5065;46.942;7.432;2023-08-31T07:02:59;2.80;;;2.30;;
10050;SDS011;5065;46.942;7.432;2023-08-31T07:05:26;3.23;;;2.90;;
10050;SDS011;5065;46.942;7.432;2023-08-31T07:07:54;3.57;;;2.77;;
10050;SDS011;5065;46.942;7.432;2023-08-31T07:10:23;3.33;;;2.50;;
10050;SDS011;5065;46.942;7.432;2023-08-31T07:12:50;4.13;;;3.13;;
10050;SDS011;5065;46.942;7.432;2023-08-31T07:15:17;6.80;;;2.67;;
10050;SDS011;5065;46.942;7.432;2023-08-31T07:17:45;4.57;;;2.70;;
10050;SDS011;5065;46.942;7.432;2023-08-31T07:20:12;3.60;;;2.70;;
10050;SDS011;5065;46.942;7.432;2023-08-31T07:22:39;3.27;;;2.90;;
10050;SDS011;5065;46.942;7.432;2023-08-31T07:25:07;3.47;;;2.77;;
10050;SDS011;5065;46.942;7.432;2023-08-31T07:27:36;3.30;;;3.00;;
10050;SDS011;5065;46.942;7.432;2023-08-31T07:30:04;3.13;;;2.83;;
10050;SDS011;5065;46.942;7.432;2023-08-31T07:32:32;4.70;;;2.80;;
10050;SDS011;5065;46.942;7.432;2023-08-31T07:34:59;4.43;;;3.35;;
10050;SDS011;5065;46.942;7.432;2023-08-31T07:37:28;3.20;;;2.53;;
10050;SDS011;5065;46.942;7.432;2023-08-31T07:39:55;4.90;;;3.00;;
10050;SDS011;5065;46.942;7.432;2023-08-31T07:42:22;4.50;;;2.53;;
10050;SDS011;5065;46.942;7.432;2023-08-31T07:44:51;4.87;;;2.77;;
10050;SDS011;5065;46.942;7.432;2023-08-31T07:47:18;3.10;;;2.53;;
10050;SDS011;5065;46.942;7.432;2023-08-31T07:49:45;3.65;;;2.75;;
10050;SDS011;5065;46.942;7.432;2023-08-31T07:52:13;5.23;;;2.90;;
10050;SDS011;5065;46.942;7.432;2023-08-31T07:54:40;4.30;;;2.50;;
10050;SDS011;5065;46.942;7.432;2023-08-31T07:57:07;4.22;;;2.92;;
10050;SDS011;5065;46.942;7.432;2023-08-31T07:59:34;2.83;;;2.42;;
10050;SDS011;5065;46.942;7.432;2023-08-31T08:02:06;3.03;;;2.53;;
10050;SDS011;5065;46.942;7.432;2023-08-31T08:04:35;3.73;;;2.63;;
10050;SDS011;5065;46.942;7.432;2023-08-31T08:07:03;4.82;;;3.30;;
10050;SDS011;5065;46.942;7.432;2023-08-31T08:09:30;5.55;;;2.70;;
10050;SDS011;5065;46.942;7.432;2023-08-31T08:11:57;5.82;;;2.85;;
10050;SDS011;5065;46.942;7.432;2023-08-31T08:14:24;4.53;;;2.65;;
10050;SDS011;5065;46.942;7.432;2023-08-31T08:16:52;2.33;;;2.13;;
10050;SDS011;5065;46.942;7.432;2023-08-31T08:19:23;3.55;;;2.70;;
10050;SDS011;5065;46.942;7.432;2023-08-31T08:21:51;3.67;;;2.47;;
10050;SDS011;5065;46.942;7.432;2023-08-31T08:24:20;4.37;;;2.90;;
10050;SDS011;5065;46.942;7.432;2023-08-31T08:26:47;6.88;;;4.50;;
10050;SDS011;5065;46.942;7.432;2023-08-31T08:29:15;4.13;;;3.30;;
10050;SDS011;5065;46.942;7.432;2023-08-31T08:31:42;4.72;;;3.13;;
10050;SDS011;5065;46.942;7.432;2023-08-31T08:34:09;2.70;;;2.40;;
10050;SDS011;5065;46.942;7.432;2023-08-31T08:36:37;4.40;;;2.40;;
10050;SDS011;5065;46.942;7.432;2023-08-31T08:39:05;3.10;;;2.25;;
10050;SDS011;5065;46.942;7.432;2023-08-31T08:41:32;3.95;;;2.22;;
10050;SDS011;5065;46.942;7.432;2023-08-31T08:44:02;3.25;;;2.20;;
10050;SDS011;5065;46.942;7.432;2023-08-31T08:46:30;1.92;;;1.67;;
10050;SDS011;5065;46.942;7.432;2023-08-31T08:48:59;2.55;;;1.83;;
10050;SDS011;5065;46.942;7.432;2023-08-31T08:51:28;3.75;;;1.95;;
10050;SDS011;5065;46.942;7.432;2023-08-31T08:54:00;2.55;;;2.33;;
10050;SDS011;5065;46.942;7.432;2023-08-31T08:56:28;2.60;;;1.83;;
10050;SDS011;5065;46.942;7.432;2023-08-31T08:58:55;2.77;;;1.90;;
10050;SDS011;5065;46.942;7.432;2023-08-31T09:01:23;1.80;;;1.70;;
10050;SDS011;5065;46.942;7.432;2023-08-31T09:03:51;1.90;;;1.65;;
10050;SDS011;5065;46.942;7.432;2023-08-31T09:06:19;2.10;;;1.88;;
10050;SDS011;5065;46.942;7.432;2023-08-31T09:08:52;3.78;;;2.05;;
10050;SDS011;5065;46.942;7.432;2023-08-31T09:11:24;3.67;;;2.10;;
10050;SDS011;5065;46.942;7.432;2023-08-31T09:13:59;3.03;;;1.98;;
10050;SDS011;5065;46.942;7.432;2023-08-31T09:16:26;6.22;;;2.30;;
10050;SDS011;5065;46.942;7.432;2023-08-31T09:18:54;3.05;;;1.90;;
10050;SDS011;5065;46.942;7.432;2023-08-31T09:21:23;2.47;;;2.10;;
10050;SDS011;5065;46.942;7.432;2023-08-31T09:24:01;2.20;;;1.90;;
10050;SDS011;5065;46.942;7.432;2023-08-31T09:26:36;3.05;;;1.80;;
10050;SDS011;5065;46.942;7.432;2023-08-31T09:29:04;2.15;;;1.90;;
10050;SDS011;5065;46.942;7.432;2023-08-31T09:31:32;3.50;;;2.05;;
10050;SDS011;5065;46.942;7.432;2023-08-31T09:33:59;2.15;;;1.95;;
10050;SDS011;5065;46.942;7.432;2023-08-31T09:36:28;2.60;;;2.20;;
10050;SDS011;5065;46.942;7.432;2023-08-31T09:38:56;3.15;;;2.20;;
10050;SDS011;5065;46.942;7.432;2023-08-31T09:41:25;3.88;;;2.28;;
10050;SDS011;5065;46.942;7.432;2023-08-31T09:43:53;2.78;;;1.88;;
10050;SDS011;5065;46.942;7.432;2023-08-31T09:46:20;2.45;;;2.20;;
10050;SDS011;5065;46.942;7.432;2023-08-31T09:48:48;2.72;;;1.80;;
10050;SDS011;5065;46.942;7.432;2023-08-31T09:51:16;3.28;;;1.98;;
10050;SDS011;5065;46.942;7.432;2023-08-31T09:53:48;1.67;;;1.58;;
10050;SDS011;5065;46.942;7.432;2023-08-31T09:56:18;5.72;;;2.13;;
10050;SDS011;5065;46.942;7.432;2023-08-31T09:58:49;3.35;;;2.00;;
10050;SDS011;5065;46.942;7.432;2023-08-31T10:01:19;2.95;;;1.75;;
10050;SDS011;5065;46.942;7.432;2023-08-31T10:03:46;1.58;;;1.40;;
10050;SDS011;5065;46.942;7.432;2023-08-31T10:06:13;2.53;;;1.92;;
10050;SDS011;5065;46.942;7.432;2023-08-31T10:08:40;6.03;;;2.28;;
10050;SDS011;5065;46.942;7.432;2023-08-31T10:11:08;3.97;;;1.60;;
10050;SDS011;5065;46.942;7.432;2023-08-31T10:13:40;2.15;;;1.65;;
10050;SDS011;5065;46.942;7.432;2023-08-31T10:16:09;1.80;;;1.58;;
10050;SDS011;5065;46.942;7.432;2023-08-31T10:18:38;2.35;;;1.50;;
10050;SDS011;5065;46.942;7.432;2023-08-31T10:21:06;2.10;;;1.67;;
10050;SDS011;5065;46.942;7.432;2023-08-31T10:23:33;2.03;;;1.73;;
10050;SDS011;5065;46.942;7.432;2023-08-31T10:26:01;4.22;;;1.65;;
10050;SDS011;5065;46.942;7.432;2023-08-31T10:28:40;3.60;;;2.03;;
10050;SDS011;5065;46.942;7.432;2023-08-31T10:31:09;2.15;;;1.75;;
10050;SDS011;5065;46.942;7.432;2023-08-31T10:33:43;4.00;;;2.28;;
10050;SDS011;5065;46.942;7.432;2023-08-31T10:36:12;2.30;;;1.52;;
10050;SDS011;5065;46.942;7.432;2023-08-31T10:38:59;3.28;;;1.90;;
10050;SDS011;5065;46.942;7.432;2023-08-31T10:41:32;1.88;;;1.63;;
10050;SDS011;5065;46.942;7.432;2023-08-31T10:44:03;3.47;;;2.55;;
10050;SDS011;5065;46.942;7.432;2023-08-31T10:46:45;3.20;;;1.83;;
10050;SDS011;5065;46.942;7.432;2023-08-31T10:52:15;2.10;;;1.80;;
10050;SDS011;5065;46.942;7.432;2023-08-31T10:55:10;2.13;;;1.65;;
10050;SDS011;5065;46.942;7.432;2023-08-31T10:57:38;2.13;;;1.65;;
10050;SDS011;5065;46.942;7.432;2023-08-31T11:00:09;4.50;;;2.80;;
10050;SDS011;5065;46.942;7.432;2023-08-31T11:02:38;1.52;;;1.42;;
10050;SDS011;5065;46.942;7.432;2023-08-31T11:05:22;1.60;;;1.50;;
10050;SDS011;5065;46.942;7.432;2023-08-31T11:07:52;3.60;;;1.42;;
10050;SDS011;5065;46.942;7.432;2023-08-31T11:10:21;1.85;;;1.40;;
10050;SDS011;5065;46.942;7.432;2023-08-31T11:12:52;3.17;;;1.80;;
10050;SDS011;5065;46.942;7.432;2023-08-31T11:15:21;2.03;;;1.45;;
10050;SDS011;5065;46.942;7.432;2023-08-31T11:17:51;1.80;;;1.65;;
10050;SDS011;5065;46.942;7.432;2023-08-31T11:20:26;1.85;;;1.35;;
10050;SDS011;5065;46.942;7.432;2023-08-31T11:22:57;1.92;;;1.23;;
10050;SDS011;5065;46.942;7.432;2023-08-31T11:25:24;4.13;;;1.40;;
10050;SDS011;5065;46.942;7.432;2023-08-31T11:27:55;1.92;;;1.50;;
10050;SDS011;5065;46.942;7.432;2023-08-31T11:30:24;1.98;;;1.58;;
10050;SDS011;5065;46.942;7.432;2023-08-31T11:32:56;4.22;;;1.02;;
10050;SDS011;5065;46.942;7.432;2023-08-31T11:35:32;0.90;;;0.90;;
10050;SDS011;5065;46.942;7.432;2023-08-31T11:38:01;0.95;;;0.90;;
10050;SDS011;5065;46.942;7.432;2023-08-31T11:40:29;1.65;;;1.00;;
10050;SDS011;5065;46.942;7.432;2023-08-31T11:42:58;1.95;;;1.70;;
10050;SDS011;5065;46.942;7.432;2023-08-31T11:45:26;2.90;;;1.40;;
10050;SDS011;5065;46.942;7.432;2023-08-31T11:48:00;2.03;;;1.77;;
10050;SDS011;5065;46.942;7.432;2023-08-31T11:50:31;3.47;;;1.45;;
10050;SDS011;5065;46.942;7.432;2023-08-31T11:53:05;1.88;;;1.48;;
10050;SDS011;5065;46.942;7.432;2023-08-31T11:55:50;1.95;;;1.50;;
10050;SDS011;5065;46.942;7.432;2023-08-31T11:58:27;1.98;;;1.27;;
10050;SDS011;5065;46.942;7.432;2023-08-31T12:00:56;1.88;;;1.25;;
10050;SDS011;5065;46.942;7.432;2023-08-31T12:03:37;4.57;;;1.52;;
10050;SDS011;5065;46.942;7.432;2023-08-31T12:09:32;1.88;;;1.33;;
10050;SDS011;5065;46.942;7.432;2023-08-31T12:12:00;1.20;;;1.10;;
10050;SDS011;5065;46.942;7.432;2023-08-31T12:14:30;1.17;;;1.08;;
10050;SDS011;5065;46.942;7.432;2023-08-31T12:17:00;1.02;;;0.88;;
10050;SDS011;5065;46.942;7.432;2023-08-31T12:19:32;1.55;;;1.13;;
10050;SDS011;5065;46.942;7.432;2023-08-31T12:22:02;1.30;;;1.08;;
10050;SDS011;5065;46.942;7.432;2023-08-31T12:24:38;1.20;;;0.95;;
10050;SDS011;5065;46.942;7.432;2023-08-31T12:27:05;2.63;;;1.48;;
10050;SDS011;5065;46.942;7.432;2023-08-31T12:29:33;4.22;;;1.67;;
10050;SDS011;5065;46.942;7.432;2023-08-31T12:32:01;5.15;;;1.23;;
10050;SDS011;5065;46.942;7.432;2023-08-31T12:34:28;1.00;;;1.00;;
10050;SDS011;5065;46.942;7.432;2023-08-31T12:36:56;1.52;;;0.98;;
10050;SDS011;5065;46.942;7.432;2023-08-31T12:39:25;3.03;;;1.10;;
10050;SDS011;5065;46.942;7.432;2023-08-31T12:41:54;3.55;;;1.13;;
10050;SDS011;5065;46.942;7.432;2023-08-31T12:44:23;4.05;;;1.70;;
10050;SDS011;5065;46.942;7.432;2023-08-31T12:46:50;1.73;;;1.10;;
10050;SDS011;5065;46.942;7.432;2023-08-31T12:49:18;1.50;;;1.40;;
10050;SDS011;5065;46.942;7.432;2023-08-31T12:51:47;1.75;;;1.27;;
10050;SDS011;5065;46.942;7.432;2023-08-31T12:54:15;1.38;;;1.10;;
10050;SDS011;5065;46.942;7.432;2023-08-31T12:56:42;2.42;;;1.35;;
10050;SDS011;5065;46.942;7.432;2023-08-31T12:59:13;1.67;;;1.40;;
10050;SDS011;5065;46.942;7.432;2023-08-31T13:01:41;1.33;;;1.08;;
10050;SDS011;5065;46.942;7.432;2023-08-31T13:04:08;1.83;;;1.48;;
10050;SDS011;5065;46.942;7.432;2023-08-31T13:06:36;1.65;;;1.40;;
10050;SDS011;5065;46.942;7.432;2023-08-31T13:09:04;1.92;;;1.33;;
10050;SDS011;5065;46.942;7.432;2023-08-31T13:11:34;1.83;;;1.25;;
10050;SDS011;5065;46.942;7.432;2023-08-31T13:14:01;0.93;;;0.88;;
10050;SDS011;5065;46.942;7.432;2023-08-31T13:16:29;1.45;;;1.33;;
10050;SDS011;5065;46.942;7.432;2023-08-31T13:18:58;1.85;;;1.35;;
10050;SDS011;5065;46.942;7.432;2023-08-31T13:21:28;1.75;;;1.25;;
10050;SDS011;5065;46.942;7.432;2023-08-31T13:23:55;1.98;;;1.38;;
10050;SDS011;5065;46.942;7.432;2023-08-31T13:26:22;1.50;;;1.40;;
10050;SDS011;5065;46.942;7.432;2023-08-31T13:28:52;1.30;;;1.20;;
10050;SDS011;5065;46.942;7.432;2023-08-31T13:31:19;1.35;;;1.17;;
10050;SDS011;5065;46.942;7.432;2023-08-31T13:33:51;1.55;;;1.30;;
10050;SDS011;5065;46.942;7.432;2023-08-31T13:36:18;1.63;;;1.42;;
10050;SDS011;5065;46.942;7.432;2023-08-31T13:38:45;5.38;;;1.73;;
10050;SDS011;5065;46.942;7.432;2023-08-31T13:41:15;1.50;;;1.20;;
10050;SDS011;5065;46.942;7.432;2023-08-31T13:43:42;2.15;;;1.38;;
10050;SDS011;5065;46.942;7.432;2023-08-31T13:46:10;3.17;;;1.35;;
10050;SDS011;5065;46.942;7.432;2023-08-31T13:48:37;1.63;;;1.30;;
10050;SDS011;5065;46.942;7.432;2023-08-31T13:51:06;2.28;;;1.25;;
10050;SDS011;5065;46.942;7.432;2023-08-31T13:53:33;1.77;;;1.60;;
10050;SDS011;5065;46.942;7.432;2023-08-31T13:56:01;2.10;;;1.45;;
10050;SDS011;5065;46.942;7.432;2023-08-31T13:58:28;2.30;;;1.40;;
10050;SDS011;5065;46.942;7.432;2023-08-31T14:00:56;1.58;;;1.08;;
10050;SDS011;5065;46.942;7.432;2023-08-31T14:03:23;4.10;;;1.77;;
10050;SDS011;5065;46.942;7.432;2023-08-31T14:05:50;1.15;;;1.05;;
10050;SDS011;5065;46.942;7.432;2023-08-31T14:08:19;1.73;;;1.30;;
10050;SDS011;5065;46.942;7.432;2023-08-31T14:10:46;1.63;;;1.33;;
10050;SDS011;5065;46.942;7.432;2023-08-31T14:13:13;1.30;;;1.20;;
10050;SDS011;5065;46.942;7.432;2023-08-31T14:15:44;1.67;;;1.42;;
10050;SDS011;5065;46.942;7.432;2023-08-31T14:18:11;1.77;;;1.27;;
10050;SDS011;5065;46.942;7.432;2023-08-31T14:20:39;1.95;;;1.50;;
10050;SDS011;5065;46.942;7.432;2023-08-31T14:23:06;2.25;;;1.60;;
10050;SDS011;5065;46.942;7.432;2023-08-31T14:25:36;3.10;;;1.27;;
10050;SDS011;5065;46.942;7.432;2023-08-31T14:28:04;1.98;;;1.20;;
10050;SDS011;5065;46.942;7.432;2023-08-31T14:30:32;2.20;;;1.60;;
10050;SDS011;5065;46.942;7.432;2023-08-31T14:33:01;3.53;;;1.55;;
10050;SDS011;5065;46.942;7.432;2023-08-31T14:35:28;2.20;;;1.52;;
10050;SDS011;5065;46.942;7.432;2023-08-31T14:37:56;2.00;;;1.60;;
10050;SDS011;5065;46.942;7.432;2023-08-31T14:40:23;2.78;;;1.40;;
10050;SDS011;5065;46.942;7.432;2023-08-31T14:42:52;2.40;;;1.58;;
10050;SDS011;5065;46.942;7.432;2023-08-31T14:45:19;1.67;;;1.27;;
10050;SDS011;5065;46.942;7.432;2023-08-31T14:47:47;1.67;;;1.30;;
10050;SDS011;5065;46.942;7.432;2023-08-31T14:50:14;1.55;;;1.35;;
10050;SDS011;5065;46.942;7.432;2023-08-31T14:52:41;1.92;;;1.42;;
10050;SDS011;5065;46.942;7.432;2023-08-31T14:55:08;2.42;;;1.40;;
10050;SDS011;5065;46.942;7.432;2023-08-31T14:57:36;2.65;;;1.73;;
10050;SDS011;5065;46.942;7.432;2023-08-31T15:00:10;2.33;;;1.75;;
10050;SDS011;5065;46.942;7.432;2023-08-31T15:02:38;3.17;;;1.65;;
10050;SDS011;5065;46.942;7.432;2023-08-31T15:05:05;2.20;;;1.70;;
10050;SDS011;5065;46.942;7.432;2023-08-31T15:07:33;2.20;;;1.45;;
10050;SDS011;5065;46.942;7.432;2023-08-31T15:10:00;1.67;;;1.40;;
10050;SDS011;5065;46.942;7.432;2023-08-31T15:12:28;1.70;;;1.40;;
10050;SDS011;5065;46.942;7.432;2023-08-31T15:14:58;2.42;;;1.30;;